KROA/ROA METAR and TAF weather

Enter ICAO airport designator
Station Type Date Time Source
KROA METAR 2022/01/26 13:54 UTC NOAA

KROA 261354Z 04004KT 10SM FEW034 M03/M11 A3035 RMK AO2 SLP286 T10281111


Station Type Date Time Source
KROA Decoded METAR 2022/01/26 13:54 UTC NOAA

ROANOKE REGIONAL AIRPORT, VA, United States (KROA) 37-19N 079-58W 362M
Jan 26, 2022 - 08:54 AM EST / 2022.01.26 1354 UTC
Wind: from the NE (040 degrees) at 5 MPH (4 KT):0
Visibility: 10 mile(s):0
Sky conditions: mostly clear
Temperature: 27.0 F (-2.8 C)
Windchill: 21 F (-6 C):1
Dew Point: 12.0 F (-11.1 C)
Relative Humidity: 52%
Pressure (altimeter): 30.35 in. Hg (1027 hPa)
ob: KROA 261354Z 04004KT 10SM FEW034 M03/M11 A3035 RMK AO2 SLP286 T10281111
cycle: 14

Station Type Date Time Source
KROA TAF 2022/01/26 12:22 UTC NOAA

TAF KROA 261120Z 2612/2712 33007KT P6SM FEW060

Example: see airport list